Amagi Galaxy — V7VE9 — position and weather

sailwx.info

Track history (hours):
 
Tides and Currents Weather Stations Pressure Air Temp Water Temp Dewpoint Dewpoint Depression Visibility Wind Speed Wind Dir Waves Ship Positions

Amagi Galaxy

Last reported at 2014-Nov-25 00:10 UTC. Time now 2014-Nov-25 01:48 UTC.
Position N 33°35' W 118°19'.

Length 152 m; draft 6.5 m.

Type: Ship (hazmat cat B). MMSI: 538004105.

Date/timePositionNaut miles runAvg speedWind from/ knotsBaromVisibWave heightAir tempDewpointWater temp
2014-Nov-25 00:10N 33°35' W 118°19'610.3
2014-Nov-24 23:33N 33°38' W 118°12'6 6.0
2014-Nov-24 22:33N 33°44' W 118°13'0 0.2
2014-Nov-24 21:32N 33°44' W 118°14'0 0.2
2014-Nov-24 20:32N 33°44' W 118°14'0 0.1
2014-Nov-24 19:32N 33°44' W 118°14'0 0.0
2014-Nov-24 18:32N 33°44' W 118°14'0 0.1
2014-Nov-24 17:32N 33°44' W 118°14'0 0.0
2014-Nov-24 16:32N 33°44' W 118°14'0 0.1
2014-Nov-24 15:32N 33°44' W 118°14'0 0.1
2014-Nov-24 14:32N 33°44' W 118°14'0 0.0
2014-Nov-24 13:32N 33°44' W 118°14'0 0.1
2014-Nov-24 12:33N 33°44' W 118°14'1 1.1
2014-Nov-24 11:33N 33°43' W 118°15'3 3.0
2014-Nov-24 10:33N 33°46' W 118°14'0 0.0
2014-Nov-24 09:32N 33°46' W 118°14'0 0.0
2014-Nov-24 08:32N 33°46' W 118°14'0 0.0
2014-Nov-24 07:32N 33°46' W 118°14'0 0.0
2014-Nov-24 06:32N 33°46' W 118°14'0 0.0
2014-Nov-24 05:29N 33°46' W 118°14'0 0.0
2014-Nov-24 04:32N 33°46' W 118°14'0 0.0
2014-Nov-24 03:32N 33°46' W 118°14'0 0.0
2014-Nov-24 02:32N 33°46' W 118°14'0 0.0
2014-Nov-24 01:32N 33°46' W 118°14'0 0.0
2014-Nov-24 00:32N 33°46' W 118°14'0 0.0
2014-Nov-23 23:32N 33°46' W 118°14'0 0.0
2014-Nov-23 22:32N 33°46' W 118°14'0 0.0
2014-Nov-23 21:32N 33°46' W 118°14'0 0.0
2014-Nov-23 20:32N 33°46' W 118°14'0 0.0
2014-Nov-23 19:29N 33°46' W 118°14'0 0.0
2014-Nov-23 18:32N 33°46' W 118°14'0 0.0
2014-Nov-23 17:32N 33°46' W 118°14'0 0.1
2014-Nov-23 16:32N 33°46' W 118°14'0 0.1
2014-Nov-23 15:32N 33°46' W 118°14'0 0.0
2014-Nov-23 14:32N 33°46' W 118°14'0 0.0
2014-Nov-23 13:33N 33°46' W 118°14'1 0.9
2014-Nov-23 12:33N 33°46' W 118°16'0 0.0
2014-Nov-23 10:27N 33°46' W 118°16'0 0.0
2014-Nov-23 09:33N 33°46' W 118°16'0 0.0
2014-Nov-23 08:33N 33°46' W 118°16'0 0.0
2014-Nov-23 07:27N 33°46' W 118°16'0 0.0
2014-Nov-23 05:15N 33°46' W 118°16'0 0.0
2014-Nov-23 01:27N 33°46' W 118°16'0 0.0
2014-Nov-23 00:33N 33°46' W 118°16'0 0.0
2014-Nov-22 23:30N 33°46' W 118°16'0 0.0
2014-Nov-22 22:30N 33°46' W 118°16'0 0.0
2014-Nov-22 21:27N 33°46' W 118°16'0 0.0
2014-Nov-22 20:33N 33°46' W 118°16'0 0.0
2014-Nov-22 19:33N 33°46' W 118°16'0 0.0
2014-Nov-22 18:30N 33°46' W 118°16'1 1.0
2014-Nov-22 17:33N 33°45' W 118°16'6 6.2
2014-Nov-22 16:33N 33°39' W 118°13'6 5.6
2014-Nov-22 15:33N 33°35' W 118°17'1010.0
2014-Nov-22 14:33N 33°36' W 118°29'1111.1
2014-Nov-22 13:33N 33°38' W 118°42'1411.3
2014-Nov-22 12:20N 33°42' W 118°58'911.6
2014-Nov-22 11:33N 33°42' W 119°09'1313.3
2014-Nov-22 10:33N 33°38' W 119°25'1413.1
2014-Nov-22 09:29N 33°35' W 119°41'1212.9
2014-Nov-22 08:33N 33°33' W 119°55'1312.3
2014-Nov-22 07:29N 33°29' W 120°11'15111.4
2014-Nov-21 18:15N 35°08' W 122°30'2313.1
2014-Nov-21 16:32N 35°28' W 122°42'1312.8
2014-Nov-21 15:32N 35°40' W 122°48'1513.0
2014-Nov-21 14:24N 35°54' W 122°56'1212.9
2014-Nov-21 13:29N 36°04' W 123°02'3712.7
2014-Nov-21 10:34N 36°37' W 123°22'1512.1
2014-Nov-21 09:17N 36°52' W 123°30'912.6
2014-Nov-21 08:33N 36°60' W 123°35'2613.0
2014-Nov-21 06:30N 37°24' W 123°50'1612.9
2014-Nov-21 05:15N 37°38' W 123°58'1312.9
2014-Nov-21 04:16N 37°50' W 124°05'2313.3
2014-Nov-21 02:31N 38°11' W 124°18'47311.1
2014-Nov-19 08:05N 45°59' W 125°40'611.7
2014-Nov-19 07:33N 46°05' W 125°39'1212.1
2014-Nov-19 06:33N 46°17' W 125°37'1212.4
2014-Nov-19 05:33N 46°30' W 125°36'1312.6
2014-Nov-19 04:33N 46°42' W 125°34'8712.5
2014-Nov-18 21:33N 48°09' W 125°21'1212.5
2014-Nov-18 20:34N 48°20' W 125°11'1312.5
2014-Nov-18 19:33N 48°31' W 125°02'1313.0
2014-Nov-18 18:34N 48°30' W 124°42'1313.0
2014-Nov-18 17:33N 48°25' W 124°24'1313.3
2014-Nov-18 16:33N 48°20' W 124°06'1312.7
2014-Nov-18 15:33N 48°17' W 123°47'9 8.7
2014-Nov-18 14:34N 48°16' W 123°34'9 8.7
2014-Nov-18 13:32N 48°22' W 123°25'9 9.6
2014-Nov-18 12:33N 48°27' W 123°12'1515.4
2014-Nov-18 11:34N 48°42' W 123°15'1211.8
2014-Nov-18 10:33N 48°51' W 123°03'1514.8
2014-Nov-18 09:33N 49°01' W 123°19'1313.3
2014-Nov-18 08:33N 49°14' W 123°21'1010.4
2014-Nov-18 07:33N 49°18' W 123°06'2 1.6
2014-Nov-18 06:33N 49°17' W 123°04'0 0.0
2014-Nov-18 05:33N 49°17' W 123°04'0 0.0
2014-Nov-18 04:33N 49°17' W 123°04'0 0.0
2014-Nov-18 03:33N 49°17' W 123°04'0 0.0
2014-Nov-18 02:33N 49°17' W 123°04'0 0.0
2014-Nov-18 01:33N 49°17' W 123°04'0 0.0
2014-Nov-18 00:33N 49°17' W 123°04'0 0.0
2014-Nov-17 23:33N 49°17' W 123°04'0 0.0
2014-Nov-17 22:33N 49°17' W 123°04'0 0.0
2014-Nov-17 21:33N 49°17' W 123°04'0 0.0
2014-Nov-17 20:33N 49°17' W 123°04'0 0.0
2014-Nov-17 19:33N 49°17' W 123°04'0 0.0
2014-Nov-17 18:33N 49°17' W 123°04'0 0.0
2014-Nov-17 17:33N 49°17' W 123°04'0 0.0
2014-Nov-17 16:33N 49°17' W 123°04'0 0.1
2014-Nov-17 15:33N 49°17' W 123°04'6 6.2
2014-Nov-17 14:33N 49°18' W 123°14'0 0.0
2014-Nov-17 13:32N 49°18' W 123°14'0 0.0
2014-Nov-17 12:32N 49°18' W 123°14'0 0.0
2014-Nov-17 11:32N 49°18' W 123°14'0 0.0
2014-Nov-17 10:32N 49°18' W 123°14'0 0.0
2014-Nov-17 09:32N 49°18' W 123°14'0 0.1
2014-Nov-17 08:29N 49°18' W 123°14'0 0.0
2014-Nov-17 07:32N 49°18' W 123°14'0 0.0
2014-Nov-17 06:32N 49°18' W 123°14'0 0.0
2014-Nov-17 05:32N 49°18' W 123°14'0 0.0
2014-Nov-17 04:32N 49°18' W 123°14'0 0.0
2014-Nov-17 03:32N 49°18' W 123°14'0 0.0
2014-Nov-17 02:32N 49°18' W 123°14'0 0.0
2014-Nov-17 01:32N 49°18' W 123°14'0 0.0
2014-Nov-17 00:32N 49°18' W 123°14'0 0.0
2014-Nov-16 23:32N 49°18' W 123°14'0 0.0
2014-Nov-16 22:32N 49°18' W 123°14'0 0.1
2014-Nov-16 21:29N 49°18' W 123°14'0 0.1
2014-Nov-16 20:32N 49°18' W 123°14'0 0.1
2014-Nov-16 19:32N 49°18' W 123°14'0 0.0
2014-Nov-16 18:32N 49°18' W 123°14'0 0.0
2014-Nov-16 17:32N 49°18' W 123°14'0 0.0
2014-Nov-16 16:32N 49°18' W 123°14'0 0.1
2014-Nov-16 15:32N 49°18' W 123°14'0 0.0
2014-Nov-16 14:32N 49°18' W 123°14'0 0.1
2014-Nov-16 13:32N 49°18' W 123°14'0 0.0
2014-Nov-16 12:32N 49°18' W 123°14'0 0.0
2014-Nov-16 11:32N 49°18' W 123°14'0 0.0
2014-Nov-16 10:32N 49°18' W 123°14'0 0.0
2014-Nov-16 09:32N 49°18' W 123°14'0 0.0
2014-Nov-16 08:32N 49°18' W 123°14'0 0.0
2014-Nov-16 07:29N 49°18' W 123°14'0 0.0
2014-Nov-16 06:32N 49°18' W 123°14'0 0.0
2014-Nov-16 05:32N 49°18' W 123°14'0 0.0
2014-Nov-16 04:32N 49°18' W 123°14'0 0.0
2014-Nov-16 03:32N 49°18' W 123°14'0 0.0
2014-Nov-16 02:32N 49°18' W 123°14'0 0.1
2014-Nov-16 01:32N 49°18' W 123°14'0 0.1
2014-Nov-16 00:32N 49°18' W 123°14'0 0.1
2014-Nov-15 23:32N 49°18' W 123°14'0 0.1
2014-Nov-15 22:32N 49°18' W 123°14'0 0.0
2014-Nov-15 21:32N 49°18' W 123°14'0 0.0
2014-Nov-15 20:32N 49°18' W 123°14'0 0.0
2014-Nov-15 19:32N 49°18' W 123°14'0 0.0
2014-Nov-15 18:32N 49°18' W 123°14'0 0.0
2014-Nov-15 17:32N 49°18' W 123°14'0 0.1
2014-Nov-15 16:32N 49°18' W 123°14'0 0.1
2014-Nov-15 15:32N 49°18' W 123°14'0 0.0
2014-Nov-15 14:32N 49°18' W 123°14'0 0.0
2014-Nov-15 13:32N 49°18' W 123°14'0 0.1
2014-Nov-15 12:32N 49°18' W 123°14'0 0.0
2014-Nov-15 11:32N 49°18' W 123°14'0 0.1
2014-Nov-15 10:32N 49°18' W 123°14'0 0.1
2014-Nov-15 09:34N 49°18' W 123°14'9 8.5
2014-Nov-15 08:33N 49°10' W 123°20'1313.0
2014-Nov-15 07:33N 48°58' W 123°11'1312.9
2014-Nov-15 06:33N 48°47' W 123°01'1212.0
2014-Nov-15 05:33N 48°38' W 123°14'1313.1
2014-Nov-15 04:34N 48°26' W 123°11'1110.7
2014-Nov-15 03:33N 48°19' W 123°25'10 9.8
2014-Nov-15 02:33N 48°13' W 123°36'1211.8
2014-Nov-15 01:33N 48°13' W 123°54'1111.2
2014-Nov-15 00:34N 48°18' W 124°09'  
Track history (hours):
 
Tides and Currents Weather Stations Pressure Air Temp Water Temp Dewpoint Dewpoint Depression Visibility Wind Speed Wind Dir Waves Ship Positions

Amagi Galaxy

Last reported at 2014-Nov-25 00:10 UTC. Time now 2014-Nov-25 01:48 UTC.
Position N 33°35' W 118°19'.

Length 152 m; draft 6.5 m.

Type: Ship (hazmat cat B). MMSI: 538004105.

Date/timePositionNaut miles runAvg speedWind from/ knotsBaromVisibWave heightAir tempDewpointWater temp
2014-Nov-25 00:10N 33°35' W 118°19'610.3
2014-Nov-24 23:33N 33°38' W 118°12'6 6.0
2014-Nov-24 22:33N 33°44' W 118°13'0 0.2
2014-Nov-24 21:32N 33°44' W 118°14'0 0.2
2014-Nov-24 20:32N 33°44' W 118°14'0 0.1
2014-Nov-24 19:32N 33°44' W 118°14'0 0.0
2014-Nov-24 18:32N 33°44' W 118°14'0 0.1
2014-Nov-24 17:32N 33°44' W 118°14'0 0.0
2014-Nov-24 16:32N 33°44' W 118°14'0 0.1
2014-Nov-24 15:32N 33°44' W 118°14'0 0.1
2014-Nov-24 14:32N 33°44' W 118°14'0 0.0
2014-Nov-24 13:32N 33°44' W 118°14'0 0.1
2014-Nov-24 12:33N 33°44' W 118°14'1 1.1
2014-Nov-24 11:33N 33°43' W 118°15'3 3.0
2014-Nov-24 10:33N 33°46' W 118°14'0 0.0
2014-Nov-24 09:32N 33°46' W 118°14'0 0.0
2014-Nov-24 08:32N 33°46' W 118°14'0 0.0
2014-Nov-24 07:32N 33°46' W 118°14'0 0.0
2014-Nov-24 06:32N 33°46' W 118°14'0 0.0
2014-Nov-24 05:29N 33°46' W 118°14'0 0.0
2014-Nov-24 04:32N 33°46' W 118°14'0 0.0
2014-Nov-24 03:32N 33°46' W 118°14'0 0.0
2014-Nov-24 02:32N 33°46' W 118°14'0 0.0
2014-Nov-24 01:32N 33°46' W 118°14'0 0.0
2014-Nov-24 00:32N 33°46' W 118°14'0 0.0
2014-Nov-23 23:32N 33°46' W 118°14'0 0.0
2014-Nov-23 22:32N 33°46' W 118°14'0 0.0
2014-Nov-23 21:32N 33°46' W 118°14'0 0.0
2014-Nov-23 20:32N 33°46' W 118°14'0 0.0
2014-Nov-23 19:29N 33°46' W 118°14'0 0.0
2014-Nov-23 18:32N 33°46' W 118°14'0 0.0
2014-Nov-23 17:32N 33°46' W 118°14'0 0.1
2014-Nov-23 16:32N 33°46' W 118°14'0 0.1
2014-Nov-23 15:32N 33°46' W 118°14'0 0.0
2014-Nov-23 14:32N 33°46' W 118°14'0 0.0
2014-Nov-23 13:33N 33°46' W 118°14'1 0.9
2014-Nov-23 12:33N 33°46' W 118°16'0 0.0
2014-Nov-23 10:27N 33°46' W 118°16'0 0.0
2014-Nov-23 09:33N 33°46' W 118°16'0 0.0
2014-Nov-23 08:33N 33°46' W 118°16'0 0.0
2014-Nov-23 07:27N 33°46' W 118°16'0 0.0
2014-Nov-23 05:15N 33°46' W 118°16'0 0.0
2014-Nov-23 01:27N 33°46' W 118°16'0 0.0
2014-Nov-23 00:33N 33°46' W 118°16'0 0.0
2014-Nov-22 23:30N 33°46' W 118°16'0 0.0
2014-Nov-22 22:30N 33°46' W 118°16'0 0.0
2014-Nov-22 21:27N 33°46' W 118°16'0 0.0
2014-Nov-22 20:33N 33°46' W 118°16'0 0.0
2014-Nov-22 19:33N 33°46' W 118°16'0 0.0
2014-Nov-22 18:30N 33°46' W 118°16'1 1.0
2014-Nov-22 17:33N 33°45' W 118°16'6 6.2
2014-Nov-22 16:33N 33°39' W 118°13'6 5.6
2014-Nov-22 15:33N 33°35' W 118°17'1010.0
2014-Nov-22 14:33N 33°36' W 118°29'1111.1
2014-Nov-22 13:33N 33°38' W 118°42'1411.3
2014-Nov-22 12:20N 33°42' W 118°58'911.6
2014-Nov-22 11:33N 33°42' W 119°09'1313.3
2014-Nov-22 10:33N 33°38' W 119°25'1413.1
2014-Nov-22 09:29N 33°35' W 119°41'1212.9
2014-Nov-22 08:33N 33°33' W 119°55'1312.3
2014-Nov-22 07:29N 33°29' W 120°11'15111.4
2014-Nov-21 18:15N 35°08' W 122°30'2313.1
2014-Nov-21 16:32N 35°28' W 122°42'1312.8
2014-Nov-21 15:32N 35°40' W 122°48'1513.0
2014-Nov-21 14:24N 35°54' W 122°56'1212.9
2014-Nov-21 13:29N 36°04' W 123°02'3712.7
2014-Nov-21 10:34N 36°37' W 123°22'1512.1
2014-Nov-21 09:17N 36°52' W 123°30'912.6
2014-Nov-21 08:33N 36°60' W 123°35'2613.0
2014-Nov-21 06:30N 37°24' W 123°50'1612.9
2014-Nov-21 05:15N 37°38' W 123°58'1312.9
2014-Nov-21 04:16N 37°50' W 124°05'2313.3
2014-Nov-21 02:31N 38°11' W 124°18'47311.1
2014-Nov-19 08:05N 45°59' W 125°40'611.7
2014-Nov-19 07:33N 46°05' W 125°39'1212.1
2014-Nov-19 06:33N 46°17' W 125°37'1212.4
2014-Nov-19 05:33N 46°30' W 125°36'1312.6
2014-Nov-19 04:33N 46°42' W 125°34'8712.5
2014-Nov-18 21:33N 48°09' W 125°21'1212.5
2014-Nov-18 20:34N 48°20' W 125°11'1312.5
2014-Nov-18 19:33N 48°31' W 125°02'1313.0
2014-Nov-18 18:34N 48°30' W 124°42'1313.0
2014-Nov-18 17:33N 48°25' W 124°24'1313.3
2014-Nov-18 16:33N 48°20' W 124°06'1312.7
2014-Nov-18 15:33N 48°17' W 123°47'9 8.7
2014-Nov-18 14:34N 48°16' W 123°34'9 8.7
2014-Nov-18 13:32N 48°22' W 123°25'9 9.6
2014-Nov-18 12:33N 48°27' W 123°12'1515.4
2014-Nov-18 11:34N 48°42' W 123°15'1211.8
2014-Nov-18 10:33N 48°51' W 123°03'1514.8
2014-Nov-18 09:33N 49°01' W 123°19'1313.3
2014-Nov-18 08:33N 49°14' W 123°21'1010.4
2014-Nov-18 07:33N 49°18' W 123°06'2 1.6
2014-Nov-18 06:33N 49°17' W 123°04'0 0.0
2014-Nov-18 05:33N 49°17' W 123°04'0 0.0
2014-Nov-18 04:33N 49°17' W 123°04'0 0.0
2014-Nov-18 03:33N 49°17' W 123°04'0 0.0
2014-Nov-18 02:33N 49°17' W 123°04'0 0.0
2014-Nov-18 01:33N 49°17' W 123°04'0 0.0
2014-Nov-18 00:33N 49°17' W 123°04'0 0.0
2014-Nov-17 23:33N 49°17' W 123°04'0 0.0
2014-Nov-17 22:33N 49°17' W 123°04'0 0.0
2014-Nov-17 21:33N 49°17' W 123°04'0 0.0
2014-Nov-17 20:33N 49°17' W 123°04'0 0.0
2014-Nov-17 19:33N 49°17' W 123°04'0 0.0
2014-Nov-17 18:33N 49°17' W 123°04'0 0.0
2014-Nov-17 17:33N 49°17' W 123°04'0 0.0
2014-Nov-17 16:33N 49°17' W 123°04'0 0.1
2014-Nov-17 15:33N 49°17' W 123°04'6 6.2
2014-Nov-17 14:33N 49°18' W 123°14'0 0.0
2014-Nov-17 13:32N 49°18' W 123°14'0 0.0
2014-Nov-17 12:32N 49°18' W 123°14'0 0.0
2014-Nov-17 11:32N 49°18' W 123°14'0 0.0
2014-Nov-17 10:32N 49°18' W 123°14'0 0.0
2014-Nov-17 09:32N 49°18' W 123°14'0 0.1
2014-Nov-17 08:29N 49°18' W 123°14'0 0.0
2014-Nov-17 07:32N 49°18' W 123°14'0 0.0
2014-Nov-17 06:32N 49°18' W 123°14'0 0.0
2014-Nov-17 05:32N 49°18' W 123°14'0 0.0
2014-Nov-17 04:32N 49°18' W 123°14'0 0.0
2014-Nov-17 03:32N 49°18' W 123°14'0 0.0
2014-Nov-17 02:32N 49°18' W 123°14'0 0.0
2014-Nov-17 01:32N 49°18' W 123°14'0 0.0
2014-Nov-17 00:32N 49°18' W 123°14'0 0.0
2014-Nov-16 23:32N 49°18' W 123°14'0 0.0
2014-Nov-16 22:32N 49°18' W 123°14'0 0.1
2014-Nov-16 21:29N 49°18' W 123°14'0 0.1
2014-Nov-16 20:32N 49°18' W 123°14'0 0.1
2014-Nov-16 19:32N 49°18' W 123°14'0 0.0
2014-Nov-16 18:32N 49°18' W 123°14'0 0.0
2014-Nov-16 17:32N 49°18' W 123°14'0 0.0
2014-Nov-16 16:32N 49°18' W 123°14'0 0.1
2014-Nov-16 15:32N 49°18' W 123°14'0 0.0
2014-Nov-16 14:32N 49°18' W 123°14'0 0.1
2014-Nov-16 13:32N 49°18' W 123°14'0 0.0
2014-Nov-16 12:32N 49°18' W 123°14'0 0.0
2014-Nov-16 11:32N 49°18' W 123°14'0 0.0
2014-Nov-16 10:32N 49°18' W 123°14'0 0.0
2014-Nov-16 09:32N 49°18' W 123°14'0 0.0
2014-Nov-16 08:32N 49°18' W 123°14'0 0.0
2014-Nov-16 07:29N 49°18' W 123°14'0 0.0
2014-Nov-16 06:32N 49°18' W 123°14'0 0.0
2014-Nov-16 05:32N 49°18' W 123°14'0 0.0
2014-Nov-16 04:32N 49°18' W 123°14'0 0.0
2014-Nov-16 03:32N 49°18' W 123°14'0 0.0
2014-Nov-16 02:32N 49°18' W 123°14'0 0.1
2014-Nov-16 01:32N 49°18' W 123°14'0 0.1
2014-Nov-16 00:32N 49°18' W 123°14'0 0.1
2014-Nov-15 23:32N 49°18' W 123°14'0 0.1
2014-Nov-15 22:32N 49°18' W 123°14'0 0.0
2014-Nov-15 21:32N 49°18' W 123°14'0 0.0
2014-Nov-15 20:32N 49°18' W 123°14'0 0.0
2014-Nov-15 19:32N 49°18' W 123°14'0 0.0
2014-Nov-15 18:32N 49°18' W 123°14'0 0.0
2014-Nov-15 17:32N 49°18' W 123°14'0 0.1
2014-Nov-15 16:32N 49°18' W 123°14'0 0.1
2014-Nov-15 15:32N 49°18' W 123°14'0 0.0
2014-Nov-15 14:32N 49°18' W 123°14'0 0.0
2014-Nov-15 13:32N 49°18' W 123°14'0 0.1
2014-Nov-15 12:32N 49°18' W 123°14'0 0.0
2014-Nov-15 11:32N 49°18' W 123°14'0 0.1
2014-Nov-15 10:32N 49°18' W 123°14'0 0.1
2014-Nov-15 09:34N 49°18' W 123°14'9 8.5
2014-Nov-15 08:33N 49°10' W 123°20'1313.0
2014-Nov-15 07:33N 48°58' W 123°11'1312.9
2014-Nov-15 06:33N 48°47' W 123°01'1212.0
2014-Nov-15 05:33N 48°38' W 123°14'1313.1
2014-Nov-15 04:34N 48°26' W 123°11'1110.7
2014-Nov-15 03:33N 48°19' W 123°25'10 9.8
2014-Nov-15 02:33N 48°13' W 123°36'1211.8
2014-Nov-15 01:33N 48°13' W 123°54'1111.2
2014-Nov-15 00:34N 48°18' W 124°09'  

Dump ship's entire track history